createdAt,value
2023-05-04T00:02:46.751Z,55.25
2023-05-04T00:07:54.056Z,55.06
2023-05-04T00:13:01.339Z,55.31
2023-05-04T00:18:08.978Z,55.06
2023-05-04T00:23:16.145Z,55.00
2023-05-04T00:28:23.519Z,55.16
2023-05-04T00:33:30.795Z,55.13
2023-05-04T00:38:48.529Z,55.16
2023-05-04T00:43:55.931Z,54.97
2023-05-04T00:49:03.488Z,55.13
2023-05-04T00:54:11.020Z,54.99
2023-05-04T00:59:18.259Z,55.20
2023-05-04T01:04:25.883Z,54.94
2023-05-04T01:09:36.027Z,54.96
2023-05-04T01:14:43.648Z,55.09
2023-05-04T01:19:51.540Z,55.15
2023-05-04T01:24:59.008Z,55.14
2023-05-04T01:30:10.359Z,55.01
2023-05-04T01:35:17.253Z,55.12
2023-05-04T01:40:24.689Z,55.01
2023-05-04T01:45:32.364Z,55.06
2023-05-04T01:50:39.533Z,55.01
2023-05-04T01:55:47.114Z,55.00
2023-05-04T02:00:54.523Z,55.13
2023-05-04T02:06:02.010Z,55.00
2023-05-04T02:11:09.441Z,55.12
2023-05-04T02:16:16.770Z,54.95
2023-05-04T02:21:24.254Z,54.99
2023-05-04T02:26:31.511Z,54.98
2023-05-04T02:31:38.661Z,55.05
2023-05-04T02:36:46.119Z,55.14
2023-05-04T02:41:53.595Z,54.90
2023-05-04T02:47:00.864Z,55.05
2023-05-04T02:52:08.572Z,54.85
2023-05-04T02:57:16.086Z,54.94
2023-05-04T03:02:23.427Z,54.85
2023-05-04T03:07:30.875Z,54.97
2023-05-04T03:12:37.965Z,54.90
2023-05-04T03:17:45.234Z,54.90
2023-05-04T03:22:52.627Z,54.85
2023-05-04T03:27:59.759Z,54.90
2023-05-04T03:33:07.155Z,55.08
2023-05-04T03:38:14.599Z,55.03
2023-05-04T03:43:21.816Z,54.91
2023-05-04T03:48:29.318Z,54.86
2023-05-04T03:53:36.950Z,54.79
2023-05-04T03:58:44.417Z,54.84
2023-05-04T04:03:51.809Z,54.98
2023-05-04T04:08:59.117Z,54.93
2023-05-04T04:14:06.255Z,54.69
2023-05-04T04:19:13.525Z,54.88
2023-05-04T04:24:21.014Z,54.72
2023-05-04T04:29:28.232Z,54.70
2023-05-04T04:34:35.481Z,54.63
2023-05-04T04:39:42.596Z,54.72
2023-05-04T04:44:49.998Z,54.56
2023-05-04T04:49:57.296Z,54.64
2023-05-04T04:55:05.416Z,54.70
2023-05-04T05:00:15.126Z,54.41
2023-05-04T05:05:22.287Z,54.54
2023-05-04T05:10:29.685Z,54.40
2023-05-04T05:15:37.084Z,54.40
2023-05-04T05:20:44.367Z,54.05
2023-05-04T05:25:51.960Z,53.93
2023-05-04T05:30:59.084Z,53.87
2023-05-04T05:36:06.690Z,54.20
2023-05-04T05:41:15.658Z,54.05
2023-05-04T05:46:23.171Z,54.21
2023-05-04T05:51:30.655Z,54.35
2023-05-04T05:56:37.741Z,54.24
2023-05-04T06:01:44.967Z,53.96
2023-05-04T06:06:52.038Z,54.34
2023-05-04T06:11:59.567Z,54.30
2023-05-04T06:17:07.046Z,54.28
2023-05-04T06:22:14.866Z,54.38
2023-05-04T06:27:24.209Z,54.26
2023-05-04T06:32:32.589Z,54.42
2023-05-04T06:37:40.162Z,54.43
2023-05-04T06:42:47.518Z,54.28
2023-05-04T06:47:55.062Z,54.22
2023-05-04T06:53:12.198Z,54.35
2023-05-04T06:58:22.149Z,54.12
2023-05-04T07:03:29.649Z,54.06
2023-05-04T07:08:37.295Z,54.24
2023-05-04T07:13:44.826Z,54.18
2023-05-04T07:18:52.374Z,54.16
2023-05-04T07:23:59.672Z,54.10
2023-05-04T07:29:06.944Z,54.08
2023-05-04T07:34:14.023Z,54.13
2023-05-04T07:39:21.140Z,54.06
2023-05-04T07:44:28.169Z,54.03
2023-05-04T07:49:35.773Z,53.91
2023-05-04T07:54:43.130Z,54.06
2023-05-04T07:59:50.445Z,53.91
2023-05-04T08:04:57.802Z,53.86
2023-05-04T08:10:05.626Z,53.69
2023-05-04T08:15:14.326Z,53.72
2023-05-04T08:20:23.534Z,53.77
2023-05-04T08:25:31.365Z,53.42
2023-05-04T08:30:39.270Z,53.59
2023-05-04T08:35:46.698Z,53.57
2023-05-04T08:40:54.352Z,53.47
2023-05-04T08:46:01.818Z,53.52
2023-05-04T08:51:09.256Z,53.47
2023-05-04T08:56:16.816Z,53.39
2023-05-04T09:01:24.399Z,53.56
2023-05-04T09:06:31.758Z,53.48
2023-05-04T09:11:39.636Z,53.40
2023-05-04T09:16:46.743Z,53.55
2023-05-04T09:21:54.816Z,53.52
2023-05-04T09:27:11.976Z,53.34
2023-05-04T09:32:19.507Z,53.50
2023-05-04T09:37:27.162Z,53.59
2023-05-04T09:42:34.860Z,53.51
2023-05-04T09:47:42.882Z,53.54
2023-05-04T09:52:50.947Z,53.55
2023-05-04T09:57:58.574Z,53.64
2023-05-04T10:03:07.703Z,53.50
2023-05-04T10:08:15.255Z,53.60
2023-05-04T10:13:22.436Z,53.58
2023-05-04T10:18:37.323Z,53.44
2023-05-04T10:23:56.916Z,53.40
2023-05-04T10:29:10.464Z,53.50
2023-05-04T10:34:25.888Z,53.48
2023-05-04T10:39:33.644Z,53.52
2023-05-04T10:44:52.142Z,53.42
2023-05-04T10:50:09.475Z,53.53
2023-05-04T10:55:16.671Z,53.45
2023-05-04T11:00:24.328Z,53.49
2023-05-04T11:05:41.846Z,53.47
2023-05-04T11:10:49.974Z,53.47
2023-05-04T11:15:56.865Z,53.43
2023-05-04T11:21:04.253Z,53.49
2023-05-04T11:26:12.786Z,53.52
2023-05-04T11:31:20.724Z,53.44
2023-05-04T11:36:27.954Z,53.36
2023-05-04T11:41:36.833Z,53.45
2023-05-04T11:46:44.338Z,53.43
2023-05-04T11:51:51.694Z,53.44
2023-05-04T11:56:59.277Z,53.42
2023-05-04T12:02:06.546Z,53.45
2023-05-04T12:07:13.717Z,53.42
2023-05-04T12:12:21.950Z,53.36
2023-05-04T12:17:29.122Z,53.41
2023-05-04T12:22:37.023Z,53.41
2023-05-04T12:27:44.325Z,53.40
2023-05-04T12:32:51.578Z,53.33
2023-05-04T12:37:58.870Z,53.24
2023-05-04T12:43:06.248Z,53.32
2023-05-04T12:48:13.664Z,53.31
2023-05-04T12:53:22.588Z,53.18
2023-05-04T12:58:30.898Z,53.29
2023-05-04T13:03:38.531Z,53.43
2023-05-04T13:08:47.582Z,53.30
2023-05-04T13:13:55.359Z,53.42
2023-05-04T13:19:02.777Z,53.31
2023-05-04T13:24:11.713Z,53.26
2023-05-04T13:29:19.078Z,53.13
2023-05-04T13:34:26.405Z,53.24
2023-05-04T13:39:41.427Z,53.12
2023-05-04T13:44:48.866Z,53.05
2023-05-04T13:49:56.569Z,53.07
2023-05-04T13:55:04.573Z,53.08
2023-05-04T14:00:13.841Z,52.78
2023-05-04T14:05:22.297Z,52.76
2023-05-04T14:10:29.613Z,52.98
2023-05-04T14:15:37.004Z,53.08
2023-05-04T14:20:44.306Z,53.06
2023-05-04T14:25:53.611Z,53.01
2023-05-04T14:31:09.054Z,52.71
2023-05-04T14:36:16.379Z,52.54
2023-05-04T14:41:23.743Z,52.68
2023-05-04T14:46:32.523Z,52.90
2023-05-04T14:51:40.141Z,52.81
2023-05-04T14:56:48.021Z,53.06
2023-05-04T15:01:57.502Z,52.94
2023-05-04T15:07:04.706Z,52.95
2023-05-04T15:12:12.048Z,52.85
2023-05-04T15:17:20.342Z,52.95
2023-05-04T15:22:27.476Z,52.99
2023-05-04T15:27:34.884Z,52.89
2023-05-04T15:32:42.232Z,52.71
2023-05-04T15:37:49.554Z,52.57
2023-05-04T15:42:57.068Z,52.57
2023-05-04T15:48:04.375Z,52.48
2023-05-04T15:53:11.990Z,52.48
2023-05-04T15:58:19.303Z,52.50
2023-05-04T16:03:26.549Z,52.67
2023-05-04T16:08:34.083Z,52.60
2023-05-04T16:13:41.630Z,52.48
2023-05-04T16:18:49.042Z,52.49
2023-05-04T16:23:56.665Z,52.46
2023-05-04T16:29:04.058Z,52.62
2023-05-04T16:34:11.303Z,52.95
2023-05-04T16:39:19.139Z,52.84
2023-05-04T16:44:26.236Z,52.62
2023-05-04T16:49:33.487Z,52.32
2023-05-04T16:54:40.709Z,52.19
2023-05-04T16:59:47.790Z,52.43
2023-05-04T17:04:55.348Z,52.20
2023-05-04T17:10:02.916Z,52.12
2023-05-04T17:15:11.351Z,52.03
2023-05-04T17:20:18.509Z,52.39
2023-05-04T17:25:25.768Z,52.59
2023-05-04T17:30:34.096Z,52.31
2023-05-04T17:35:41.351Z,52.63
2023-05-04T17:40:48.798Z,52.65
2023-05-04T17:45:56.337Z,52.30
2023-05-04T17:51:03.988Z,52.29
2023-05-04T17:56:11.535Z,52.38
2023-05-04T18:01:18.750Z,52.40
2023-05-04T18:06:26.499Z,52.60
2023-05-04T18:11:33.855Z,53.00
2023-05-04T18:16:41.111Z,52.80
2023-05-04T18:21:48.145Z,52.69
2023-05-04T18:26:56.465Z,52.94
2023-05-04T18:32:08.355Z,53.09
2023-05-04T18:37:15.513Z,53.17
2023-05-04T18:42:22.667Z,53.05
2023-05-04T18:47:30.043Z,53.03
2023-05-04T18:52:37.399Z,52.81
2023-05-04T18:57:44.848Z,53.18
2023-05-04T19:02:52.142Z,52.79
2023-05-04T19:07:59.385Z,53.05
2023-05-04T19:13:06.704Z,53.07
2023-05-04T19:18:14.290Z,52.98
2023-05-04T19:23:21.563Z,52.94
2023-05-04T19:28:29.019Z,52.65
2023-05-04T19:33:47.347Z,53.08
2023-05-04T19:38:56.427Z,53.05
2023-05-04T19:44:03.897Z,53.34
2023-05-04T19:49:12.064Z,53.20
2023-05-04T19:54:19.460Z,53.37
2023-05-04T19:59:26.799Z,53.45
2023-05-04T20:04:34.177Z,53.45
2023-05-04T20:09:41.743Z,53.51
2023-05-04T20:14:49.193Z,53.53
2023-05-04T20:19:56.965Z,53.45
2023-05-04T20:25:04.533Z,53.43
2023-05-04T20:30:12.337Z,53.40
2023-05-04T20:35:19.604Z,53.46
2023-05-04T20:40:26.981Z,53.51
2023-05-04T20:45:34.612Z,53.49
2023-05-04T20:50:41.822Z,53.51
2023-05-04T20:55:49.435Z,53.57
2023-05-04T21:00:58.304Z,53.45
2023-05-04T21:06:06.299Z,53.55
2023-05-04T21:11:14.110Z,53.44
2023-05-04T21:16:21.854Z,53.50
2023-05-04T21:21:29.337Z,53.50
2023-05-04T21:26:36.714Z,53.54
2023-05-04T21:31:44.043Z,53.48
2023-05-04T21:36:51.563Z,53.58
2023-05-04T21:41:59.045Z,53.53
2023-05-04T21:47:07.512Z,53.47
2023-05-04T21:52:15.018Z,53.49
2023-05-04T21:57:22.156Z,53.52
2023-05-04T22:02:29.760Z,53.64
2023-05-04T22:07:37.513Z,53.56
2023-05-04T22:12:45.024Z,53.52
2023-05-04T22:17:52.376Z,53.55
2023-05-04T22:22:59.607Z,53.57
2023-05-04T22:28:06.886Z,53.48
2023-05-04T22:33:14.120Z,53.63
2023-05-04T22:38:21.500Z,53.55
2023-05-04T22:43:28.714Z,53.52
2023-05-04T22:48:36.008Z,53.70
2023-05-04T22:53:43.537Z,53.60
2023-05-04T22:58:51.077Z,53.58
2023-05-04T23:03:58.178Z,53.44
2023-05-04T23:09:05.426Z,53.17
2023-05-04T23:14:13.256Z,53.62
2023-05-04T23:19:20.427Z,53.59
2023-05-04T23:24:27.554Z,53.54
2023-05-04T23:29:34.663Z,53.20
2023-05-04T23:34:41.987Z,53.47
2023-05-04T23:39:49.204Z,53.54
2023-05-04T23:44:57.626Z,53.44
2023-05-04T23:50:05.254Z,53.55
2023-05-04T23:55:13.279Z,53.51
